Time;durP1;ratioP1;P1;durP2;ratioP2;P2;SDS_P1;SDS_P2;PMS_P1;PMS_P2;Temp;Humidity;BMP_temperature;BMP_pressure;BME280_temperature;BME280_humidity;BME280_pressure;Samples;Min_cycle;Max_cycle;Signal;HPM_P1;HPM_P2
2022/02/18 00:00:22;;;;;;;3.87;3.57;;;13.10;99.90;;;;;;5082603;28;20760;-67
2022/02/18 00:02:54;;;;;;;4.50;3.67;;;13.20;99.90;;;;;;5082206;28;20452;-67
2022/02/18 00:05:26;;;;;;;3.80;3.40;;;12.90;99.90;;;;;;5084795;28;20447;-66
2022/02/18 00:07:57;;;;;;;4.53;3.53;;;12.90;99.90;;;;;;5088861;28;20451;-67
2022/02/18 00:10:28;;;;;;;3.23;2.93;;;12.80;99.90;;;;;;5088830;28;20482;-65
2022/02/18 00:12:59;;;;;;;3.80;3.40;;;12.90;99.90;;;;;;5086888;28;20519;-65
2022/02/18 00:15:30;;;;;;;4.07;3.17;;;13.00;99.90;;;;;;5082649;28;20454;-66
2022/02/18 00:18:03;;;;;;;3.73;3.40;;;12.90;99.90;;;;;;5079798;28;20451;-67
2022/02/18 00:20:36;;;;;;;4.30;3.10;;;13.10;99.90;;;;;;5083047;28;20555;-66
2022/02/18 00:23:08;;;;;;;4.37;3.97;;;13.10;99.90;;;;;;5093193;28;20950;-65
2022/02/18 00:25:40;;;;;;;3.00;2.80;;;13.00;99.90;;;;;;5099474;28;20462;-65
2022/02/18 00:28:12;;;;;;;5.90;3.13;;;12.90;99.90;;;;;;5090702;28;20451;-65
2022/02/18 00:30:43;;;;;;;5.00;3.53;;;12.70;99.90;;;;;;5085204;28;20478;-66
2022/02/18 00:33:13;;;;;;;3.50;3.20;;;12.40;99.90;;;;;;5093857;28;20452;-66
2022/02/18 00:35:46;;;;;;;3.73;3.10;;;12.20;99.90;;;;;;5086349;28;20440;-66
2022/02/18 00:38:28;;;;;;;3.70;3.40;;;12.20;99.90;;;;;;5083384;28;20461;-65
2022/02/18 00:40:59;;;;;;;3.10;2.90;;;12.10;99.90;;;;;;5090490;28;20864;-65
2022/02/18 00:43:30;;;;;;;4.60;3.30;;;12.10;99.90;;;;;;5082632;28;20474;-65
2022/02/18 00:46:01;;;;;;;6.60;3.37;;;12.20;99.90;;;;;;5079032;28;20485;-65
2022/02/18 00:48:32;;;;;;;3.90;3.50;;;12.00;99.90;;;;;;5083027;28;20470;-67
2022/02/18 00:51:05;;;;;;;3.50;3.20;;;11.90;99.90;;;;;;5087964;28;20487;-62
2022/02/18 00:53:43;;;;;;;3.57;2.93;;;11.80;99.90;;;;;;5082453;28;20451;-66
2022/02/18 00:56:14;;;;;;;4.50;2.97;;;11.70;99.90;;;;;;5082341;28;20455;-65
2022/02/18 00:58:45;;;;;;;4.70;3.10;;;11.70;99.90;;;;;;5081449;28;20456;-66
2022/02/18 01:01:16;;;;;;;4.50;3.27;;;11.70;99.90;;;;;;5081693;28;20447;-66
2022/02/18 01:03:47;;;;;;;3.40;3.10;;;11.60;99.90;;;;;;5082176;28;20443;-66
2022/02/18 01:06:21;;;;;;;3.70;3.40;;;11.50;99.90;;;;;;5083100;28;20436;-66
2022/02/18 01:09:06;;;;;;;4.70;3.70;;;11.40;99.90;;;;;;5080222;28;20509;-68
2022/02/18 01:11:37;;;;;;;4.40;3.80;;;11.30;99.90;;;;;;5072471;28;20550;-67
2022/02/18 01:14:09;;;;;;;6.93;4.10;;;11.20;99.90;;;;;;5081152;28;20451;-67
2022/02/18 01:16:40;;;;;;;6.67;4.30;;;11.20;99.90;;;;;;5082419;28;20455;-66
2022/02/18 01:19:35;;;;;;;4.10;3.80;;;11.00;99.90;;;;;;5081107;28;20466;-67
2022/02/18 01:22:17;;;;;;;6.60;3.80;;;11.00;99.90;;;;;;5081284;28;20457;-71
2022/02/18 01:24:48;;;;;;;3.90;3.30;;;11.00;99.90;;;;;;5083833;28;20506;-68
2022/02/18 01:27:19;;;;;;;4.87;4.03;;;10.90;99.90;;;;;;5090259;28;20435;-67
2022/02/18 01:29:50;;;;;;;4.20;3.80;;;10.90;99.90;;;;;;5083672;28;20475;-67
2022/02/18 01:32:21;;;;;;;4.07;3.70;;;10.70;99.90;;;;;;5084442;28;20451;-67
2022/02/18 01:34:51;;;;;;;4.83;3.67;;;10.60;99.90;;;;;;5085464;28;20452;-68
2022/02/18 01:37:24;;;;;;;4.30;3.90;;;10.50;99.90;;;;;;5078118;28;20451;-67
2022/02/18 01:39:55;;;;;;;4.17;3.77;;;10.50;99.90;;;;;;5084281;28;20471;-66
2022/02/18 01:42:32;;;;;;;8.43;4.80;;;10.30;99.90;;;;;;5084459;28;20506;-68
2022/02/18 01:45:07;;;;;;;4.90;4.40;;;10.30;99.90;;;;;;5081812;28;20608;-67
2022/02/18 01:47:39;;;;;;;5.67;4.47;;;10.20;99.90;;;;;;5085074;28;20454;-68
2022/02/18 01:50:11;;;;;;;4.83;4.27;;;10.20;99.90;;;;;;5084632;28;20489;-69
2022/02/18 01:52:49;;;;;;;4.87;4.40;;;10.10;99.90;;;;;;5083888;28;20541;-70
2022/02/18 01:55:22;;;;;;;5.10;4.03;;;10.00;99.90;;;;;;5084178;28;20517;-68
2022/02/18 01:57:54;;;;;;;6.97;4.37;;;9.90;99.90;;;;;;5088728;28;20439;-69
2022/02/18 02:00:29;;;;;;;4.53;4.13;;;9.80;99.90;;;;;;5094998;28;20473;-68
2022/02/18 02:03:02;;;;;;;7.10;4.23;;;9.70;99.90;;;;;;5083123;28;20212;-69
2022/02/18 02:05:33;;;;;;;5.93;5.00;;;9.60;99.90;;;;;;5075994;28;20455;-68
2022/02/18 02:08:06;;;;;;;5.60;4.87;;;9.50;99.90;;;;;;5083650;28;20448;-70
2022/02/18 02:10:38;;;;;;;7.68;5.30;;;9.50;99.90;;;;;;5083336;28;20515;-68
2022/02/18 02:13:09;;;;;;;8.57;4.93;;;9.60;99.90;;;;;;5083360;28;20213;-67
2022/02/18 02:15:40;;;;;;;6.20;4.80;;;9.50;99.90;;;;;;5083570;28;20182;-67
2022/02/18 02:18:11;;;;;;;6.53;4.23;;;9.50;99.90;;;;;;5085364;28;20561;-66
2022/02/18 02:20:42;;;;;;;6.77;5.30;;;9.40;99.90;;;;;;5082281;28;20518;-67
2022/02/18 02:23:15;;;;;;;7.33;5.40;;;9.40;99.90;;;;;;5088377;28;20451;-66
2022/02/18 02:25:46;;;;;;;5.57;5.07;;;9.30;99.90;;;;;;5083506;28;20454;-69
2022/02/18 02:28:18;;;;;;;5.35;4.85;;;9.20;99.90;;;;;;5084552;28;20439;-70
2022/02/18 02:30:49;;;;;;;7.07;5.97;;;9.20;99.90;;;;;;5088065;28;20580;-72
2022/02/18 02:33:22;;;;;;;8.60;6.53;;;9.10;99.90;;;;;;5085021;28;20193;-70
2022/02/18 02:35:53;;;;;;;9.40;7.07;;;9.10;99.90;;;;;;5089139;28;20236;-68
2022/02/18 02:38:26;;;;;;;12.88;8.10;;;9.00;99.90;;;;;;5088547;28;20455;-72
2022/02/18 02:40:57;;;;;;;12.57;8.80;;;8.80;99.90;;;;;;5084279;28;20634;-72
2022/02/18 02:43:28;;;;;;;9.25;8.32;;;8.70;99.90;;;;;;5084234;28;20478;-68
2022/02/18 02:45:59;;;;;;;9.65;8.18;;;8.70;99.90;;;;;;5083591;28;20220;-68
2022/02/18 02:48:30;;;;;;;9.30;7.73;;;8.70;99.90;;;;;;5083370;28;20197;-68
2022/02/18 02:51:01;;;;;;;7.25;6.25;;;8.60;99.90;;;;;;5083886;28;20559;-72
2022/02/18 02:53:34;;;;;;;7.85;6.80;;;8.60;99.90;;;;;;5083513;28;20208;-69
2022/02/18 02:56:08;;;;;;;7.70;6.10;;;8.60;99.90;;;;;;5086312;28;20189;-73
2022/02/18 02:58:39;;;;;;;8.20;6.50;;;8.60;99.90;;;;;;5085112;28;20253;-71
2022/02/18 03:01:09;;;;;;;7.80;7.00;;;8.50;99.90;;;;;;5084297;28;20891;-73
2022/02/18 03:03:44;;;;;;;7.25;6.18;;;8.60;99.90;;;;;;5096246;28;20207;-69
2022/02/18 03:06:15;;;;;;;9.13;7.03;;;8.60;99.90;;;;;;5084157;28;20262;-72
2022/02/18 03:08:48;;;;;;;7.35;6.65;;;8.50;99.90;;;;;;5083962;28;20201;-69
2022/02/18 03:11:18;;;;;;;7.38;6.50;;;8.40;99.90;;;;;;5084377;28;20352;-74
2022/02/18 03:13:50;;;;;;;7.22;6.55;;;8.40;99.90;;;;;;5083039;28;20289;-65
2022/02/18 03:16:23;;;;;;;7.85;6.30;;;8.40;99.90;;;;;;5082824;28;20613;-62
2022/02/18 03:18:54;;;;;;;11.02;7.65;;;8.30;99.90;;;;;;5083664;28;20213;-67
2022/02/18 03:21:25;;;;;;;9.75;6.88;;;8.30;99.90;;;;;;5079085;28;20212;-62
2022/02/18 03:23:58;;;;;;;8.07;7.35;;;8.20;99.90;;;;;;5079849;28;20209;-67
2022/02/18 03:26:29;;;;;;;10.93;8.02;;;8.20;99.90;;;;;;5093320;28;20189;-67
2022/02/18 03:29:00;;;;;;;8.43;7.63;;;8.20;99.90;;;;;;5083274;28;20203;-64
2022/02/18 03:31:31;;;;;;;10.27;9.23;;;8.20;99.90;;;;;;5083668;28;20224;-65
2022/02/18 03:34:02;;;;;;;9.98;7.85;;;8.10;99.90;;;;;;5082921;28;20260;-63
2022/02/18 03:36:41;;;;;;;10.55;8.90;;;8.10;99.90;;;;;;5083456;28;20193;-66
2022/02/18 03:39:14;;;;;;;13.88;12.18;;;8.10;99.90;;;;;;5080719;28;20208;-64
2022/02/18 03:42:10;;;;;;;14.23;12.30;;;8.00;99.90;;;;;;5082715;28;20227;-67
2022/02/18 03:44:41;;;;;;;13.00;11.70;;;7.90;99.90;;;;;;5080796;28;20216;-64
2022/02/18 03:47:12;;;;;;;14.18;12.60;;;7.90;99.90;;;;;;5081622;28;20200;-65
2022/02/18 03:49:43;;;;;;;14.55;12.07;;;8.00;99.90;;;;;;5082462;28;20193;-66
2022/02/18 03:52:20;;;;;;;11.60;10.10;;;8.00;99.90;;;;;;5082837;28;20228;-67
2022/02/18 03:54:53;;;;;;;11.52;9.50;;;8.00;99.90;;;;;;5081912;28;20205;-67
2022/02/18 03:57:30;;;;;;;10.50;9.30;;;8.10;99.90;;;;;;5081493;28;20637;-66
2022/02/18 04:00:00;;;;;;;10.65;9.55;;;8.10;99.90;;;;;;5079992;28;20189;-66
2022/02/18 04:02:32;;;;;;;13.52;9.75;;;8.10;99.90;;;;;;5082397;28;20199;-67
2022/02/18 04:05:03;;;;;;;13.52;10.23;;;8.00;99.90;;;;;;5078691;28;20598;-66
2022/02/18 04:07:34;;;;;;;10.40;9.40;;;8.00;99.90;;;;;;5084732;28;20211;-67
2022/02/18 04:10:10;;;;;;;12.05;9.65;;;8.00;99.90;;;;;;5081708;28;20263;-68
2022/02/18 04:12:42;;;;;;;13.48;9.88;;;7.90;99.90;;;;;;5080833;28;20221;-68
2022/02/18 04:15:13;;;;;;;11.93;9.65;;;7.80;99.90;;;;;;5082155;28;20217;-68
2022/02/18 04:17:45;;;;;;;11.98;9.90;;;7.80;99.90;;;;;;5078323;28;20190;-68
2022/02/18 04:20:16;;;;;;;11.40;10.20;;;7.70;99.90;;;;;;5079448;28;20197;-67
2022/02/18 04:23:07;;;;;;;12.40;11.05;;;7.70;99.90;;;;;;5081266;28;20209;-66
2022/02/18 04:25:39;;;;;;;11.75;10.38;;;7.60;99.90;;;;;;5082579;28;20201;-67
2022/02/18 04:28:10;;;;;;;12.90;11.00;;;7.60;99.90;;;;;;5087346;28;20201;-68
2022/02/18 04:30:43;;;;;;;15.25;11.55;;;7.60;99.90;;;;;;5084133;28;20291;-68
2022/02/18 04:33:15;;;;;;;12.90;11.48;;;7.60;99.90;;;;;;5086854;28;20236;-69
2022/02/18 04:35:46;;;;;;;14.75;11.68;;;7.50;99.90;;;;;;5091716;28;20578;-68
2022/02/18 04:38:18;;;;;;;11.82;10.80;;;7.60;99.90;;;;;;5086911;28;20209;-67
2022/02/18 04:40:50;;;;;;;11.70;10.50;;;7.50;99.90;;;;;;5082645;28;20239;-69
2022/02/18 04:43:30;;;;;;;12.15;10.85;;;7.50;99.90;;;;;;5080301;28;20905;-68
2022/02/18 04:46:01;;;;;;;11.77;10.68;;;7.40;99.90;;;;;;5081817;28;20314;-68
2022/02/18 04:48:34;;;;;;;16.17;11.63;;;7.40;99.90;;;;;;5095610;28;20275;-69
2022/02/18 04:51:05;;;;;;;14.65;12.85;;;7.30;99.90;;;;;;5086079;28;20221;-68
2022/02/18 04:53:39;;;;;;;15.85;13.65;;;7.20;99.90;;;;;;5083343;28;20629;-68
2022/02/18 04:56:12;;;;;;;16.17;13.60;;;7.20;99.90;;;;;;5084853;28;20213;-69
2022/02/18 04:58:43;;;;;;;16.05;12.82;;;7.20;99.90;;;;;;5081654;28;20215;-68
2022/02/18 05:01:16;;;;;;;18.63;13.93;;;7.10;99.90;;;;;;5082646;28;20205;-68
2022/02/18 05:03:47;;;;;;;15.88;13.18;;;7.10;99.90;;;;;;5082341;28;20201;-68
2022/02/18 05:06:21;;;;;;;14.55;13.05;;;6.90;99.90;;;;;;5083299;28;20190;-69
2022/02/18 05:09:01;;;;;;;13.40;11.90;;;6.90;99.90;;;;;;5082294;28;20196;-68
2022/02/18 05:11:33;;;;;;;14.23;12.82;;;6.90;99.90;;;;;;5082982;28;20296;-68
2022/02/18 05:14:04;;;;;;;13.88;12.52;;;6.90;99.90;;;;;;5085804;28;20204;-68
2022/02/18 05:16:35;;;;;;;13.52;11.52;;;6.80;99.90;;;;;;5082219;28;20268;-69
2022/02/18 05:19:09;;;;;;;14.32;12.07;;;6.80;99.90;;;;;;5086603;28;20926;-67
2022/02/18 05:21:43;;;;;;;13.57;11.40;;;6.70;99.90;;;;;;5089749;28;20288;-67
2022/02/18 05:24:48;;;;;;;15.25;12.38;;;6.70;99.90;;;;;;5082093;28;20201;-69
2022/02/18 05:27:24;;;;;;;13.25;12.05;;;6.60;99.90;;;;;;5082901;28;20190;-68
2022/02/18 05:29:55;;;;;;;14.98;12.85;;;6.70;99.90;;;;;;5082349;28;20285;-67
2022/02/18 05:32:26;;;;;;;14.80;12.63;;;6.60;99.90;;;;;;5082458;28;20232;-67
2022/02/18 05:34:58;;;;;;;15.18;13.57;;;6.60;99.90;;;;;;5082033;28;20219;-68
2022/02/18 05:37:30;;;;;;;14.85;13.45;;;6.60;99.90;;;;;;5066067;28;20685;-68
2022/02/18 05:40:01;;;;;;;14.93;13.32;;;6.60;99.90;;;;;;5082398;28;20640;-68
2022/02/18 05:42:34;;;;;;;15.13;13.55;;;6.50;99.90;;;;;;5082565;28;20194;-66
2022/02/18 05:45:06;;;;;;;17.63;14.10;;;6.50;99.90;;;;;;5080320;28;20197;-68
2022/02/18 05:47:38;;;;;;;16.42;14.50;;;6.40;99.90;;;;;;5066214;28;20198;-69
2022/02/18 05:50:14;;;;;;;19.35;14.63;;;6.40;99.90;;;;;;5081835;28;20231;-69
2022/02/18 05:52:46;;;;;;;17.13;13.80;;;6.50;99.90;;;;;;5076615;28;20221;-67
2022/02/18 05:55:17;;;;;;;16.33;14.60;;;6.50;99.90;;;;;;5080276;28;20201;-68
2022/02/18 05:57:50;;;;;;;17.75;13.52;;;6.40;99.90;;;;;;5083424;28;20217;-67
2022/02/18 06:00:21;;;;;;;17.23;14.02;;;6.30;99.90;;;;;;5081185;28;20197;-67
2022/02/18 06:02:52;;;;;;;15.40;13.80;;;6.30;99.90;;;;;;5066419;28;20211;-67
2022/02/18 06:08:21;;;;;;;15.45;13.85;;;6.20;99.90;;;;;;5080966;28;20220;-66
2022/02/18 06:10:52;;;;;;;15.15;13.43;;;6.10;99.90;;;;;;5079787;28;20222;-67
2022/02/18 06:13:25;;;;;;;17.15;13.70;;;6.10;99.90;;;;;;5085345;28;20210;-68
2022/02/18 06:15:56;;;;;;;19.00;14.23;;;6.00;99.90;;;;;;5084868;28;20233;-68
2022/02/18 06:18:28;;;;;;;16.08;13.77;;;5.90;99.90;;;;;;5085393;28;20201;-67
2022/02/18 06:20:58;;;;;;;16.73;13.05;;;5.90;99.90;;;;;;5084436;28;20201;-67
2022/02/18 06:23:29;;;;;;;15.57;13.82;;;5.90;99.90;;;;;;5087349;28;20214;-69
2022/02/18 06:26:01;;;;;;;16.58;13.82;;;5.90;99.90;;;;;;5081960;28;20200;-75
2022/02/18 06:28:33;;;;;;;16.85;13.93;;;5.90;99.90;;;;;;5085821;28;20197;-74
2022/02/18 06:31:04;;;;;;;15.85;14.18;;;5.80;99.90;;;;;;5092130;28;20197;-74
2022/02/18 06:33:35;;;;;;;16.15;14.43;;;5.80;99.90;;;;;;5084930;28;20256;-73
2022/02/18 06:36:21;;;;;;;15.82;13.05;;;5.80;99.90;;;;;;5086773;28;20220;-72
2022/02/18 06:38:52;;;;;;;17.50;14.48;;;5.70;99.90;;;;;;5081442;28;20244;-74
2022/02/18 06:41:23;;;;;;;17.42;14.65;;;5.70;99.90;;;;;;5084494;28;20229;-75
2022/02/18 06:43:56;;;;;;;18.08;13.70;;;5.70;99.90;;;;;;5084961;28;20193;-74
2022/02/18 06:46:30;;;;;;;16.35;14.55;;;5.70;99.90;;;;;;5080993;28;20318;-71
2022/02/18 06:49:00;;;;;;;15.85;13.50;;;5.60;99.90;;;;;;5079946;28;20292;-73
2022/02/18 06:51:31;;;;;;;17.20;13.65;;;5.60;99.90;;;;;;5080626;28;20216;-73
2022/02/18 06:54:02;;;;;;;16.38;14.65;;;5.60;99.90;;;;;;5077537;28;20225;-75
2022/02/18 06:56:54;;;;;;;16.60;14.82;;;5.60;99.90;;;;;;5078354;28;20201;-76
2022/02/18 06:59:26;;;;;;;15.13;13.52;;;5.60;99.90;;;;;;5077380;28;20189;-74
2022/02/18 07:01:57;;;;;;;18.98;13.18;;;5.60;99.90;;;;;;5079585;28;20196;-75
2022/02/18 07:04:28;;;;;;;18.10;12.40;;;5.60;99.90;;;;;;5079063;28;20906;-75
2022/02/18 07:06:59;;;;;;;17.25;13.80;;;5.50;99.90;;;;;;5078245;28;20193;-74
2022/02/18 07:09:31;;;;;;;19.38;14.63;;;5.40;99.90;;;;;;5081324;28;20284;-75
2022/02/18 07:12:02;;;;;;;15.60;13.95;;;5.40;99.90;;;;;;5083343;28;20295;-74
2022/02/18 07:14:35;;;;;;;16.83;13.57;;;5.50;99.90;;;;;;5083484;28;20272;-73
2022/02/18 07:17:07;;;;;;;16.73;13.90;;;5.40;99.90;;;;;;5083058;28;20200;-72
2022/02/18 07:19:39;;;;;;;16.90;14.45;;;5.40;99.90;;;;;;5083159;28;20283;-73
2022/02/18 07:22:10;;;;;;;15.77;13.60;;;5.40;99.90;;;;;;5084776;28;20201;-73
2022/02/18 07:24:41;;;;;;;16.92;13.52;;;5.40;99.90;;;;;;5091250;28;20224;-74
2022/02/18 07:27:12;;;;;;;16.52;13.77;;;5.40;99.90;;;;;;5082628;28;20663;-75
2022/02/18 07:29:45;;;;;;;16.20;14.13;;;5.40;99.90;;;;;;5082710;28;20185;-75
2022/02/18 07:32:16;;;;;;;16.73;13.57;;;5.40;99.90;;;;;;5083348;28;20203;-74
2022/02/18 07:34:46;;;;;;;15.27;13.77;;;5.30;99.90;;;;;;5083225;28;20227;-74
2022/02/18 07:37:18;;;;;;;14.82;12.50;;;5.30;99.90;;;;;;5083011;28;20209;-75
2022/02/18 07:39:49;;;;;;;16.75;14.45;;;5.30;99.90;;;;;;5085193;28;20260;-75
2022/02/18 07:42:20;;;;;;;16.88;13.95;;;5.30;99.90;;;;;;5083227;28;20390;-75
2022/02/18 07:44:52;;;;;;;15.65;13.57;;;5.30;99.90;;;;;;5086200;28;20260;-74
2022/02/18 07:47:23;;;;;;;20.40;13.95;;;5.30;99.90;;;;;;5083029;28;20189;-74
2022/02/18 07:50:00;;;;;;;20.38;14.23;;;5.30;99.90;;;;;;5083195;28;20201;-74
2022/02/18 07:52:31;;;;;;;15.73;12.93;;;5.30;99.90;;;;;;5067040;28;20208;-75
2022/02/18 07:55:02;;;;;;;16.25;12.82;;;5.30;99.90;;;;;;5084419;28;20764;-75
2022/02/18 07:57:34;;;;;;;17.70;15.35;;;5.30;99.90;;;;;;5084050;28;20197;-74
2022/02/18 08:00:13;;;;;;;16.67;14.57;;;5.30;99.90;;;;;;5082694;28;20193;-73
2022/02/18 08:02:44;;;;;;;17.30;13.63;;;5.30;99.90;;;;;;5079992;28;20246;-75
2022/02/18 08:05:17;;;;;;;17.75;14.55;;;5.30;99.90;;;;;;5081663;28;20552;-75
2022/02/18 08:07:48;;;;;;;16.42;14.60;;;5.30;99.90;;;;;;5080787;28;20750;-74
2022/02/18 08:10:19;;;;;;;18.67;16.13;;;5.30;99.90;;;;;;5079144;28;20269;-74
2022/02/18 08:12:50;;;;;;;17.58;15.88;;;5.30;99.90;;;;;;5080366;28;20232;-75
2022/02/18 08:15:23;;;;;;;18.17;15.65;;;5.30;99.90;;;;;;5083083;28;20217;-73
2022/02/18 08:17:54;;;;;;;19.00;17.00;;;5.30;99.90;;;;;;5080072;28;20219;-74
2022/02/18 08:20:25;;;;;;;21.30;16.33;;;5.40;99.90;;;;;;5081844;28;20221;-74
2022/02/18 08:22:56;;;;;;;19.30;16.08;;;5.40;99.90;;;;;;5080511;28;20197;-73
2022/02/18 08:25:27;;;;;;;17.98;14.65;;;5.50;99.90;;;;;;5080683;28;20201;-74
2022/02/18 08:27:58;;;;;;;18.88;15.95;;;5.50;99.90;;;;;;5082448;28;20211;-75
2022/02/18 08:30:31;;;;;;;20.10;15.75;;;5.50;99.90;;;;;;5077544;28;20252;-73
2022/02/18 08:33:02;;;;;;;23.98;15.60;;;5.60;99.90;;;;;;5081867;28;20207;-74
2022/02/18 08:35:33;;;;;;;18.15;15.52;;;5.60;99.90;;;;;;5081795;28;20213;-74
2022/02/18 08:38:04;;;;;;;17.17;13.90;;;5.60;99.90;;;;;;5082128;28;20223;-74
2022/02/18 08:40:38;;;;;;;14.50;13.00;;;5.70;99.90;;;;;;5081969;28;20311;-74
2022/02/18 08:43:09;;;;;;;17.13;13.90;;;5.60;99.90;;;;;;5086153;28;20862;-74
2022/02/18 08:45:43;;;;;;;16.23;13.35;;;5.80;99.90;;;;;;5077551;28;20211;-74
2022/02/18 08:48:13;;;;;;;15.65;14.00;;;5.80;99.90;;;;;;5089554;28;20205;-74
2022/02/18 08:50:47;;;;;;;15.82;13.88;;;5.90;99.90;;;;;;5083529;28;20216;-74
2022/02/18 08:53:18;;;;;;;16.25;14.07;;;5.90;99.90;;;;;;5078084;28;20232;-74
2022/02/18 08:55:50;;;;;;;17.10;13.07;;;6.00;99.90;;;;;;5083055;28;20210;-74
2022/02/18 08:58:21;;;;;;;14.85;13.40;;;6.00;99.90;;;;;;5096434;28;20197;-74
2022/02/18 09:00:54;;;;;;;17.45;13.32;;;6.00;99.90;;;;;;5086481;28;20197;-74
2022/02/18 09:03:29;;;;;;;16.17;14.45;;;6.00;99.90;;;;;;5083066;28;20220;-74
2022/02/18 09:06:00;;;;;;;16.80;14.73;;;6.10;99.90;;;;;;5085967;28;20528;-74
2022/02/18 09:08:31;;;;;;;17.25;15.18;;;6.10;99.90;;;;;;5081243;28;20665;-73
2022/02/18 09:11:02;;;;;;;15.60;14.13;;;6.20;99.90;;;;;;5082087;28;20629;-74
2022/02/18 09:13:33;;;;;;;15.35;13.85;;;6.10;99.90;;;;;;5085703;28;20212;-74
2022/02/18 09:16:06;;;;;;;17.10;14.75;;;6.20;99.90;;;;;;5081668;28;20200;-74
2022/02/18 09:18:37;;;;;;;16.02;14.23;;;6.30;99.90;;;;;;5086195;28;20193;-74
2022/02/18 09:21:08;;;;;;;16.70;14.40;;;6.30;99.90;;;;;;5084952;28;20265;-73
2022/02/18 09:24:36;;;;;;;15.63;14.00;;;6.40;99.90;;;;;;5084784;28;20282;-74
2022/02/18 09:27:08;;;;;;;18.10;14.25;;;6.40;99.90;;;;;;5043866;28;20201;-74
2022/02/18 09:29:38;;;;;;;15.32;13.80;;;6.50;99.90;;;;;;5084916;28;20264;-74
2022/02/18 09:32:12;;;;;;;18.40;14.25;;;6.50;99.90;;;;;;5081722;28;20219;-74
2022/02/18 09:34:43;;;;;;;15.57;13.93;;;6.60;99.90;;;;;;5077892;28;20224;-74
2022/02/18 09:37:16;;;;;;;19.08;14.50;;;6.60;99.90;;;;;;5084690;28;20205;-74
2022/02/18 09:39:47;;;;;;;16.67;13.40;;;6.60;99.90;;;;;;5082954;28;20284;-72
2022/02/18 09:42:19;;;;;;;18.65;13.80;;;6.60;99.90;;;;;;5084354;28;20229;-74
2022/02/18 09:44:51;;;;;;;15.52;13.20;;;6.60;99.90;;;;;;5084146;28;20208;-73
2022/02/18 09:47:24;;;;;;;15.90;14.18;;;6.60;99.90;;;;;;5077754;28;20225;-73
2022/02/18 09:49:55;;;;;;;16.10;14.30;;;6.60;99.90;;;;;;5084769;28;20273;-73
2022/02/18 09:52:33;;;;;;;14.68;13.15;;;6.60;99.90;;;;;;5085616;28;20193;-73
2022/02/18 09:55:04;;;;;;;17.02;14.15;;;6.60;99.90;;;;;;5072627;28;20403;-73
2022/02/18 09:57:37;;;;;;;17.90;15.15;;;6.50;99.90;;;;;;5086888;28;20211;-73
2022/02/18 10:00:31;;;;;;;16.15;14.43;;;6.50;99.90;;;;;;5083916;28;20247;-73
2022/02/18 10:03:05;;;;;;;15.75;13.98;;;6.50;99.90;;;;;;5085219;28;20212;-73
2022/02/18 10:05:36;;;;;;;16.20;13.05;;;6.60;99.90;;;;;;5088674;28;20225;-73
2022/02/18 10:08:09;;;;;;;17.08;15.32;;;6.60;99.90;;;;;;5090098;28;20185;-72
2022/02/18 10:10:41;;;;;;;16.15;14.23;;;6.70;99.90;;;;;;5084576;28;20201;-73
2022/02/18 10:13:34;;;;;;;15.40;13.73;;;6.70;99.90;;;;;;5085466;28;20325;-73
2022/02/18 10:16:15;;;;;;;23.10;13.27;;;6.70;99.90;;;;;;5084952;28;20236;-72
2022/02/18 10:18:53;;;;;;;15.23;13.45;;;6.70;99.90;;;;;;5084637;28;20277;-73
2022/02/18 10:21:26;;;;;;;13.98;12.43;;;6.60;99.90;;;;;;5090837;28;20197;-73
2022/02/18 10:24:17;;;;;;;15.60;14.10;;;6.70;99.90;;;;;;5084204;28;20213;-73
2022/02/18 10:26:49;;;;;;;16.55;14.25;;;6.60;99.90;;;;;;5085587;28;20292;-72
2022/02/18 10:29:22;;;;;;;17.02;14.52;;;6.70;99.90;;;;;;5088052;28;20282;-72
2022/02/18 10:32:11;;;;;;;15.93;14.23;;;6.60;99.90;;;;;;5090036;28;20192;-72
2022/02/18 10:34:56;;;;;;;17.05;15.25;;;6.60;99.90;;;;;;5086591;28;20213;-72
2022/02/18 10:37:28;;;;;;;15.77;14.05;;;6.70;99.90;;;;;;5082872;28;20202;-73
2022/02/18 10:40:14;;;;;;;15.80;14.00;;;6.60;99.90;;;;;;5086441;28;20213;-73
2022/02/18 10:42:46;;;;;;;16.63;14.75;;;6.70;99.90;;;;;;5084822;28;20211;-73
2022/02/18 10:45:19;;;;;;;16.80;14.20;;;6.70;99.90;;;;;;5076146;28;20208;-73
2022/02/18 10:47:51;;;;;;;16.73;13.98;;;6.70;99.90;;;;;;5083879;28;20211;-73
2022/02/18 10:50:26;;;;;;;15.40;12.82;;;6.70;99.90;;;;;;5084911;28;20265;-74
2022/02/18 10:53:14;;;;;;;15.05;13.40;;;6.70;99.90;;;;;;5083110;28;20287;-73
2022/02/18 10:55:53;;;;;;;15.68;14.05;;;6.70;99.90;;;;;;5086605;28;20320;-73
2022/02/18 10:58:26;;;;;;;15.48;13.90;;;6.70;99.90;;;;;;5084344;28;20208;-73
2022/02/18 11:01:12;;;;;;;16.25;13.48;;;6.70;99.90;;;;;;5095979;28;20200;-73
2022/02/18 11:04:01;;;;;;;17.13;13.80;;;6.70;99.90;;;;;;5084890;28;20209;-73
2022/02/18 11:06:34;;;;;;;14.43;13.02;;;6.80;99.90;;;;;;5081548;28;20697;-73
2022/02/18 11:09:09;;;;;;;14.77;13.30;;;6.70;99.90;;;;;;5088572;28;20196;-73
2022/02/18 11:11:43;;;;;;;15.90;14.10;;;6.70;99.90;;;;;;5087798;28;20726;-73
2022/02/18 11:14:16;;;;;;;18.05;14.07;;;6.70;99.90;;;;;;5078808;28;20277;-73
2022/02/18 11:16:52;;;;;;;16.75;14.13;;;6.70;99.90;;;;;;5080278;28;20225;-73
2022/02/18 11:19:24;;;;;;;16.10;14.60;;;6.70;99.90;;;;;;5080456;28;20264;-72
2022/02/18 11:22:16;;;;;;;16.20;14.00;;;6.70;99.90;;;;;;5090276;28;20206;-72
2022/02/18 11:24:48;;;;;;;17.20;14.02;;;6.80;99.90;;;;;;5085945;28;20205;-72
2022/02/18 11:27:19;;;;;;;17.08;14.15;;;6.80;99.90;;;;;;5087460;28;20189;-72
2022/02/18 11:29:50;;;;;;;17.02;15.13;;;6.80;99.90;;;;;;5083824;28;20204;-72
2022/02/18 11:32:27;;;;;;;15.68;14.10;;;6.80;99.90;;;;;;5083998;28;20219;-72
2022/02/18 11:35:16;;;;;;;18.63;14.23;;;6.80;99.90;;;;;;5079117;28;20232;-73
2022/02/18 11:38:17;;;;;;;18.65;14.05;;;6.80;99.90;;;;;;5084270;28;20211;-73
2022/02/18 11:41:05;;;;;;;13.88;12.48;;;6.80;99.90;;;;;;5083361;28;20336;-71
2022/02/18 11:43:44;;;;;;;14.23;12.80;;;6.80;99.90;;;;;;5083685;28;20260;-72
2022/02/18 11:46:24;;;;;;;16.60;14.15;;;6.80;99.90;;;;;;5076467;28;20201;-72
2022/02/18 11:48:56;;;;;;;16.45;13.27;;;6.80;99.90;;;;;;5083185;28;20205;-72
2022/02/18 11:51:39;;;;;;;15.25;12.55;;;6.80;99.90;;;;;;5083605;28;20193;-72
2022/02/18 11:57:07;;;;;;;15.13;13.50;;;6.90;99.90;;;;;;5162999;27;21045;-73
2022/02/18 11:59:58;;;;;;;15.73;13.50;;;6.90;99.90;;;;;;5160427;27;20201;-74
2022/02/18 12:02:40;;;;;;;13.85;12.55;;;6.90;99.90;;;;;;5160963;27;20225;-73
2022/02/18 12:05:13;;;;;;;14.70;12.52;;;6.80;99.90;;;;;;5160377;27;20202;-73
2022/02/18 12:07:46;;;;;;;17.48;13.70;;;6.80;99.90;;;;;;5161124;27;20205;-74
2022/02/18 12:10:25;;;;;;;16.25;13.27;;;6.80;99.90;;;;;;5160754;27;20206;-73
2022/02/18 12:13:05;;;;;;;18.17;13.20;;;6.80;99.90;;;;;;5160955;27;20289;-72
2022/02/18 12:15:38;;;;;;;14.68;13.18;;;6.80;99.90;;;;;;5161312;27;20221;-73
2022/02/18 12:18:23;;;;;;;16.80;14.05;;;6.80;99.90;;;;;;5160816;27;20202;-73
2022/02/18 12:21:09;;;;;;;19.42;13.30;;;6.70;99.90;;;;;;5160649;27;20198;-73
2022/02/18 12:23:42;;;;;;;16.63;13.90;;;6.70;99.90;;;;;;5160670;27;20214;-74
2022/02/18 12:26:32;;;;;;;15.07;12.63;;;6.60;99.90;;;;;;5159941;27;20195;-73
2022/02/18 12:29:35;;;;;;;15.32;12.05;;;6.50;99.90;;;;;;5157870;27;20205;-73
2022/02/18 12:32:07;;;;;;;17.52;13.18;;;6.40;99.90;;;;;;5156838;27;20203;-73
2022/02/18 12:34:39;;;;;;;14.45;12.52;;;6.40;99.90;;;;;;5160754;27;20203;-73
2022/02/18 12:37:10;;;;;;;15.93;13.18;;;6.40;99.90;;;;;;5160513;27;20548;-73
2022/02/18 12:39:43;;;;;;;15.23;13.05;;;6.30;99.90;;;;;;5160124;27;20254;-73
2022/02/18 12:42:20;;;;;;;15.95;13.70;;;6.20;99.90;;;;;;5160224;27;20220;-73
2022/02/18 12:44:54;;;;;;;19.80;14.02;;;6.10;99.90;;;;;;5159659;27;20199;-73
2022/02/18 12:47:26;;;;;;;17.52;13.85;;;6.10;99.90;;;;;;5151727;27;20222;-73
2022/02/18 12:49:59;;;;;;;17.77;13.55;;;6.10;99.90;;;;;;5160304;27;20262;-74
2022/02/18 12:52:32;;;;;;;17.70;15.27;;;6.10;99.90;;;;;;5157102;27;20214;-68
2022/02/18 12:55:05;;;;;;;16.45;14.35;;;6.00;99.90;;;;;;5160205;27;20543;-70
2022/02/18 12:57:37;;;;;;;16.80;13.68;;;6.00;99.90;;;;;;5160201;27;20213;-72
2022/02/18 13:00:11;;;;;;;21.92;16.70;;;5.90;99.90;;;;;;5157268;27;20222;-70
2022/02/18 13:02:44;;;;;;;16.85;15.15;;;5.90;99.90;;;;;;5157862;27;20198;-71
2022/02/18 13:05:16;;;;;;;17.17;15.07;;;5.80;99.90;;;;;;5159845;27;20681;-74
2022/02/18 13:07:51;;;;;;;18.75;15.48;;;5.80;99.90;;;;;;5145022;27;20186;-73
2022/02/18 13:10:26;;;;;;;18.15;15.10;;;5.70;99.90;;;;;;5146401;27;20190;-73
2022/02/18 13:13:19;;;;;;;19.13;16.73;;;5.60;99.90;;;;;;5138958;27;20187;-73
2022/02/18 13:15:53;;;;;;;19.15;16.60;;;5.60;99.90;;;;;;5145406;27;20302;-73
2022/02/18 13:18:25;;;;;;;23.05;16.88;;;5.50;99.90;;;;;;5146435;27;20194;-73
2022/02/18 13:20:56;;;;;;;18.35;15.30;;;5.40;99.90;;;;;;5145391;27;20709;-73